createdAt,value
2018-02-02T00:02:18.082Z,24.17
2018-02-02T00:04:45.679Z,25.53
2018-02-02T00:07:13.356Z,26.13
2018-02-02T00:09:40.951Z,25.57
2018-02-02T00:12:08.525Z,23.17
2018-02-02T00:14:36.129Z,23.33
2018-02-02T00:17:03.720Z,23.57
2018-02-02T00:19:31.263Z,25.70
2018-02-02T00:21:58.861Z,23.00
2018-02-02T00:24:26.457Z,23.27
2018-02-02T00:26:53.984Z,24.07
2018-02-02T00:29:21.581Z,24.20
2018-02-02T00:31:49.180Z,23.40
2018-02-02T00:34:16.772Z,20.17
2018-02-02T00:36:44.355Z,22.03
2018-02-02T00:39:11.895Z,22.00
2018-02-02T00:41:39.492Z,21.60
2018-02-02T00:44:07.093Z,22.53
2018-02-02T00:46:34.695Z,20.90
2018-02-02T00:49:02.222Z,20.43
2018-02-02T00:54:30.802Z,19.53
2018-02-02T00:56:58.320Z,19.20
2018-02-02T00:59:25.913Z,18.73
2018-02-02T01:01:53.513Z,23.23
2018-02-02T01:04:21.034Z,20.07
2018-02-02T01:06:48.680Z,21.57
2018-02-02T01:09:16.280Z,20.37
2018-02-02T01:11:43.924Z,19.50
2018-02-02T01:14:11.520Z,21.10
2018-02-02T01:16:39.046Z,21.40
2018-02-02T01:19:06.701Z,20.40
2018-02-02T01:21:34.377Z,18.27
2018-02-02T01:24:01.954Z,20.93
2018-02-02T01:26:29.608Z,20.83
2018-02-02T01:28:57.212Z,20.23
2018-02-02T01:31:24.884Z,20.00
2018-02-02T01:33:52.484Z,20.87
2018-02-02T01:36:20.132Z,21.23
2018-02-02T01:38:47.721Z,18.50
2018-02-02T01:41:15.316Z,20.13
2018-02-02T01:43:42.928Z,19.90
2018-02-02T01:46:10.582Z,18.67
2018-02-02T01:48:38.168Z,20.17
2018-02-02T01:51:05.815Z,18.93
2018-02-02T01:53:33.424Z,18.53
2018-02-02T01:56:00.962Z,18.23
2018-02-02T01:58:28.618Z,17.70
2018-02-02T02:00:56.221Z,19.53
2018-02-02T02:03:23.759Z,18.20
2018-02-02T02:05:51.396Z,20.73
2018-02-02T02:08:18.988Z,20.07
2018-02-02T02:10:46.510Z,19.17
2018-02-02T02:13:14.151Z,19.60
2018-02-02T02:15:41.694Z,16.73
2018-02-02T02:18:09.364Z,19.60
2018-02-02T02:20:36.952Z,18.53
2018-02-02T02:23:04.478Z,15.73
2018-02-02T02:25:32.166Z,16.40
2018-02-02T02:27:59.697Z,19.37
2018-02-02T02:30:27.346Z,16.03
2018-02-02T02:32:54.940Z,16.57
2018-02-02T02:35:22.528Z,18.37
2018-02-02T02:37:50.052Z,17.30
2018-02-02T02:40:17.712Z,19.97
2018-02-02T02:42:45.368Z,16.67
2018-02-02T02:45:12.973Z,19.73
2018-02-02T02:47:40.565Z,20.13
2018-02-02T02:50:08.215Z,17.97
2018-02-02T02:52:35.808Z,18.10
2018-02-02T02:55:03.468Z,17.33
2018-02-02T02:57:31.061Z,17.03
2018-02-02T02:59:58.722Z,19.00
2018-02-02T03:02:26.320Z,18.37
2018-02-02T03:04:53.977Z,19.27
2018-02-02T03:07:21.576Z,15.00
2018-02-02T03:09:49.168Z,18.47
2018-02-02T03:12:16.834Z,16.90
2018-02-02T03:14:44.428Z,16.90
2018-02-02T03:17:12.022Z,17.87
2018-02-02T03:19:39.559Z,17.90
2018-02-02T03:22:07.189Z,15.33
2018-02-02T03:24:34.829Z,18.67
2018-02-02T03:27:02.433Z,17.43
2018-02-02T03:29:30.127Z,15.47
2018-02-02T03:31:57.727Z,16.50
2018-02-02T03:34:25.396Z,17.20
2018-02-02T03:36:52.992Z,15.93
2018-02-02T03:39:20.518Z,17.13
2018-02-02T03:41:48.176Z,16.17
2018-02-02T03:44:15.713Z,18.07
2018-02-02T03:46:43.231Z,17.20
2018-02-02T03:49:10.825Z,18.57
2018-02-02T03:51:38.435Z,22.43
2018-02-02T03:54:06.090Z,18.67
2018-02-02T03:56:33.676Z,17.43
2018-02-02T03:59:01.264Z,24.73
2018-02-02T04:01:28.853Z,18.37
2018-02-02T04:03:56.616Z,17.37
2018-02-02T04:06:24.213Z,18.57
2018-02-02T04:08:51.744Z,18.17
2018-02-02T04:11:19.340Z,17.33
2018-02-02T04:13:46.931Z,16.67
2018-02-02T04:16:14.581Z,18.47
2018-02-02T04:18:42.102Z,21.27
2018-02-02T04:21:09.750Z,19.10
2018-02-02T04:23:37.344Z,17.67
2018-02-02T04:26:04.867Z,17.87
2018-02-02T04:28:32.521Z,17.73
2018-02-02T04:31:00.047Z,16.90
2018-02-02T04:33:27.652Z,14.37
2018-02-02T04:35:55.278Z,18.50
2018-02-02T04:38:22.992Z,16.27
2018-02-02T04:40:50.514Z,18.13
2018-02-02T04:43:18.096Z,17.27
2018-02-02T04:45:45.689Z,15.33
2018-02-02T04:48:13.215Z,22.20
2018-02-02T04:50:40.739Z,16.87
2018-02-02T04:53:08.336Z,15.80
2018-02-02T04:55:35.923Z,17.40
2018-02-02T04:58:03.513Z,19.07
2018-02-02T05:00:31.108Z,18.40
2018-02-02T05:02:58.758Z,19.37
2018-02-02T05:05:26.280Z,16.37
2018-02-02T05:07:53.925Z,16.53
2018-02-02T05:10:21.512Z,14.43
2018-02-02T05:12:49.042Z,21.00
2018-02-02T05:15:16.698Z,23.87
2018-02-02T05:17:44.365Z,19.07
2018-02-02T05:20:11.886Z,18.23
2018-02-02T05:22:39.472Z,19.80
2018-02-02T05:25:07.160Z,21.53
2018-02-02T05:27:34.682Z,19.40
2018-02-02T05:30:02.328Z,18.50
2018-02-02T05:32:29.983Z,15.53
2018-02-02T05:34:57.577Z,15.53
2018-02-02T05:37:25.173Z,19.33
2018-02-02T05:39:52.820Z,19.27
2018-02-02T05:42:20.414Z,20.80
2018-02-02T05:44:48.013Z,36.87
2018-02-02T05:47:15.619Z,39.70
2018-02-02T05:49:43.213Z,37.70
2018-02-02T05:52:10.805Z,38.97
2018-02-02T05:54:38.343Z,37.90
2018-02-02T05:57:05.932Z,32.47
2018-02-02T05:59:33.581Z,29.43
2018-02-02T06:02:01.207Z,36.67
2018-02-02T06:04:28.941Z,30.07
2018-02-02T06:06:56.463Z,26.03
2018-02-02T06:09:23.990Z,27.00
2018-02-02T06:11:51.528Z,26.27
2018-02-02T06:14:19.046Z,29.27
2018-02-02T06:16:46.631Z,25.40
2018-02-02T06:19:26.044Z,27.90
2018-02-02T06:21:53.695Z,23.20
2018-02-02T06:24:21.223Z,27.77
2018-02-02T06:26:48.813Z,27.60
2018-02-02T06:29:16.339Z,25.00
2018-02-02T06:31:43.865Z,23.67
2018-02-02T06:34:11.402Z,22.03
2018-02-02T06:36:38.995Z,25.17
2018-02-02T06:39:06.526Z,24.67
2018-02-02T06:41:34.220Z,23.37
2018-02-02T06:44:01.868Z,23.50
2018-02-02T06:46:29.393Z,22.90
2018-02-02T06:48:56.914Z,24.93
2018-02-02T06:51:24.519Z,25.43
2018-02-02T06:53:52.176Z,24.67
2018-02-02T06:56:19.702Z,25.40
2018-02-02T06:58:47.260Z,28.87
2018-02-02T07:01:14.858Z,27.27
2018-02-02T07:03:42.558Z,22.23
2018-02-02T07:06:10.197Z,22.33
2018-02-02T07:08:37.727Z,27.73
2018-02-02T07:11:05.330Z,22.27
2018-02-02T07:13:32.950Z,21.83
2018-02-02T07:16:00.565Z,25.07
2018-02-02T07:18:28.161Z,25.50
2018-02-02T07:20:55.683Z,22.57
2018-02-02T07:23:23.267Z,23.03
2018-02-02T07:25:50.900Z,25.97
2018-02-02T07:28:18.492Z,28.57
2018-02-02T07:30:46.097Z,24.50
2018-02-02T07:33:13.748Z,22.47
2018-02-02T07:35:41.396Z,25.27
2018-02-02T07:38:08.995Z,23.13
2018-02-02T07:40:36.644Z,23.67
2018-02-02T07:43:04.331Z,21.87
2018-02-02T07:45:31.924Z,28.77
2018-02-02T07:47:59.533Z,25.80
2018-02-02T07:50:27.091Z,23.20
2018-02-02T07:52:54.672Z,23.03
2018-02-02T07:55:22.360Z,24.97
2018-02-02T07:57:50.019Z,25.33
2018-02-02T08:00:17.681Z,26.23
2018-02-02T08:02:45.214Z,21.43
2018-02-02T08:05:12.847Z,25.10
2018-02-02T08:07:40.362Z,23.30
2018-02-02T08:10:08.017Z,20.10
2018-02-02T08:12:35.638Z,23.57
2018-02-02T08:15:03.237Z,22.03
2018-02-02T08:17:30.767Z,25.10
2018-02-02T08:19:58.377Z,25.03
2018-02-02T08:22:26.004Z,20.70
2018-02-02T08:24:53.638Z,25.60
2018-02-02T08:27:21.285Z,21.30
2018-02-02T08:29:48.835Z,22.87
2018-02-02T08:32:16.430Z,22.67
2018-02-02T08:34:44.041Z,23.40
2018-02-02T08:37:11.664Z,23.17
2018-02-02T08:39:39.485Z,23.07
2018-02-02T08:42:07.072Z,27.57
2018-02-02T08:44:35.882Z,23.60
2018-02-02T08:47:03.481Z,24.00
2018-02-02T08:49:31.068Z,39.03
2018-02-02T08:51:58.652Z,26.17
2018-02-02T08:54:26.249Z,26.33
2018-02-02T08:56:53.775Z,29.90
2018-02-02T08:59:21.369Z,22.53
2018-02-02T09:01:54.409Z,24.57
2018-02-02T09:04:22.132Z,22.63
2018-02-02T09:06:49.720Z,24.43
2018-02-02T09:09:17.309Z,26.00
2018-02-02T09:11:44.934Z,26.47
2018-02-02T09:14:12.592Z,22.17
2018-02-02T09:16:40.235Z,25.30
2018-02-02T09:19:08.072Z,21.50
2018-02-02T09:21:35.731Z,34.20
2018-02-02T09:24:03.250Z,21.93
2018-02-02T09:26:30.897Z,31.87
2018-02-02T09:28:59.837Z,21.93
2018-02-02T09:31:27.924Z,28.90
2018-02-02T09:33:55.329Z,25.27
2018-02-02T09:36:22.994Z,23.13
2018-02-02T09:38:50.646Z,22.60
2018-02-02T09:41:18.238Z,22.70
2018-02-02T09:43:45.880Z,24.60
2018-02-02T09:46:13.466Z,21.13
2018-02-02T09:48:41.113Z,20.33
2018-02-02T09:51:08.700Z,27.07
2018-02-02T09:53:36.296Z,20.83
2018-02-02T09:56:03.814Z,22.93
2018-02-02T09:58:31.338Z,25.20
2018-02-02T10:00:58.989Z,28.30
2018-02-02T10:03:26.526Z,20.30
2018-02-02T10:05:54.176Z,23.90
2018-02-02T10:08:21.768Z,22.03
2018-02-02T10:10:49.384Z,22.03
2018-02-02T10:13:16.981Z,23.93
2018-02-02T10:15:44.598Z,23.10
2018-02-02T10:18:12.136Z,23.63
2018-02-02T10:20:39.741Z,23.23
2018-02-02T10:23:07.335Z,19.33
2018-02-02T10:25:34.929Z,29.17
2018-02-02T10:28:02.517Z,20.77
2018-02-02T10:30:30.109Z,20.67
2018-02-02T10:32:57.768Z,22.90
2018-02-02T10:35:25.360Z,24.37
2018-02-02T10:37:52.991Z,39.37
2018-02-02T10:40:20.640Z,41.37
2018-02-02T10:42:48.162Z,40.83
2018-02-02T10:45:15.751Z,47.30
2018-02-02T10:47:43.392Z,36.07
2018-02-02T10:50:10.996Z,44.40
2018-02-02T10:52:38.660Z,40.03
2018-02-02T10:55:06.310Z,44.27
2018-02-02T10:57:33.902Z,45.50
2018-02-02T11:00:01.428Z,41.97
2018-02-02T11:02:34.792Z,34.57
2018-02-02T11:05:02.464Z,36.47
2018-02-02T11:07:30.067Z,34.80
2018-02-02T11:09:57.665Z,32.23
2018-02-02T11:12:25.190Z,40.10
2018-02-02T11:14:52.844Z,32.60
2018-02-02T11:17:20.366Z,39.77
2018-02-02T11:19:47.887Z,40.83
2018-02-02T11:22:15.531Z,41.40
2018-02-02T11:24:43.125Z,33.40
2018-02-02T11:27:10.662Z,37.40
2018-02-02T11:29:38.312Z,41.40
2018-02-02T11:32:05.834Z,31.00
2018-02-02T11:34:33.480Z,38.17
2018-02-02T11:37:01.081Z,37.23
2018-02-02T11:39:28.797Z,34.07
2018-02-02T11:41:56.393Z,40.70
2018-02-02T11:44:23.984Z,36.67
2018-02-02T11:46:51.510Z,39.50
2018-02-02T11:49:19.156Z,38.43
2018-02-02T11:51:46.757Z,39.17
2018-02-02T11:54:14.357Z,39.03
2018-02-02T11:56:41.882Z,39.67
2018-02-02T11:59:09.482Z,37.03
2018-02-02T12:01:37.035Z,37.43
2018-02-02T12:04:04.629Z,37.33
2018-02-02T12:06:32.174Z,34.70
2018-02-02T12:08:59.776Z,33.13
2018-02-02T12:11:27.367Z,33.20
2018-02-02T12:13:55.128Z,32.70
2018-02-02T12:16:22.819Z,39.67
2018-02-02T13:02:53.117Z,30.73
2018-02-02T13:05:20.760Z,33.00
2018-02-02T13:07:48.293Z,33.27
2018-02-02T13:10:15.888Z,29.70
2018-02-02T13:12:43.418Z,37.87
2018-02-02T13:15:10.947Z,31.20
2018-02-02T13:17:38.541Z,36.83
2018-02-02T13:20:06.168Z,28.53
2018-02-02T13:22:33.856Z,46.67
2018-02-02T13:25:01.392Z,35.80
2018-02-02T13:27:29.022Z,36.77
2018-02-02T13:29:56.553Z,35.40
2018-02-02T13:32:24.083Z,35.63
2018-02-02T13:34:51.684Z,28.83
2018-02-02T13:37:19.293Z,36.00
2018-02-02T13:39:46.876Z,31.30
2018-02-02T13:42:14.525Z,34.70
2018-02-02T13:44:42.132Z,36.57
2018-02-02T13:47:09.659Z,33.23
2018-02-02T13:49:37.253Z,27.13
2018-02-02T13:52:04.906Z,26.50
2018-02-02T13:54:32.492Z,26.93
2018-02-02T13:57:00.090Z,28.83
2018-02-02T13:59:27.689Z,26.87
2018-02-02T14:01:55.267Z,19.73
2018-02-02T14:04:22.771Z,27.70
2018-02-02T14:06:50.297Z,22.27
2018-02-02T14:09:17.889Z,22.73
2018-02-02T14:11:45.479Z,26.13
2018-02-02T14:14:13.006Z,27.60
2018-02-02T14:16:40.596Z,20.30
2018-02-02T14:19:08.123Z,29.13
2018-02-02T14:21:35.708Z,26.27
2018-02-02T14:24:03.320Z,29.13
2018-02-02T14:26:30.908Z,21.40
2018-02-02T14:28:58.501Z,26.37
2018-02-02T14:31:26.122Z,22.70
2018-02-02T14:33:53.737Z,22.60
2018-02-02T14:36:21.369Z,21.10
2018-02-02T14:38:49.025Z,25.10
2018-02-02T14:41:16.617Z,25.57
2018-02-02T16:18:42.292Z,44.37
2018-02-02T16:21:10.002Z,43.20
2018-02-02T16:23:37.629Z,44.93
2018-02-02T16:26:05.313Z,38.10
2018-02-02T16:28:32.862Z,43.13
2018-02-02T16:31:00.477Z,42.07
2018-02-02T16:33:28.007Z,41.37
2018-02-02T16:35:55.583Z,33.67
2018-02-02T16:38:23.156Z,40.97
2018-02-02T16:41:04.099Z,39.20
2018-02-02T16:43:36.061Z,50.03
2018-02-02T16:46:10.525Z,37.93
2018-02-02T16:48:38.776Z,33.10
2018-02-02T16:51:06.621Z,43.23
2018-02-02T16:53:40.387Z,41.67
2018-02-02T16:56:08.045Z,38.77
2018-02-02T16:58:47.516Z,39.57
2018-02-02T17:01:15.951Z,34.87
2018-02-02T17:03:44.295Z,38.70
2018-02-02T17:06:11.901Z,34.77
2018-02-02T17:08:39.451Z,40.00
2018-02-02T17:11:07.004Z,35.03
2018-02-02T17:13:41.582Z,35.43
2018-02-02T17:16:09.835Z,40.20
2018-02-02T17:18:37.507Z,43.50
2018-02-02T17:21:05.116Z,44.87
2018-02-02T17:23:33.894Z,39.80
2018-02-02T17:26:01.742Z,44.37
2018-02-02T17:28:29.341Z,40.47
2018-02-02T17:30:56.878Z,43.33
2018-02-02T17:33:24.576Z,43.73
2018-02-02T17:35:52.220Z,42.97
2018-02-02T17:38:19.742Z,37.53
2018-02-02T17:40:47.398Z,41.97
2018-02-02T17:43:15.004Z,44.07
2018-02-02T17:45:42.603Z,47.20
2018-02-02T17:48:10.262Z,51.27
2018-02-02T17:50:37.789Z,49.47
2018-02-02T17:53:05.394Z,52.00
2018-02-02T17:55:33.006Z,51.10
2018-02-02T17:58:00.530Z,39.77
2018-02-02T18:00:32.710Z,48.43
2018-02-02T18:03:01.067Z,51.97
2018-02-02T18:05:28.615Z,49.80
2018-02-02T18:07:56.236Z,53.67
2018-02-02T18:10:24.022Z,47.90
2018-02-02T18:12:51.642Z,50.57
2018-02-02T18:15:19.452Z,38.20
2018-02-02T18:17:47.109Z,45.33
2018-02-02T18:20:14.931Z,41.00
2018-02-02T18:22:42.526Z,39.57
2018-02-02T18:25:10.124Z,37.00
2018-02-02T18:27:37.655Z,39.50
2018-02-02T18:30:06.984Z,40.53
2018-02-02T18:32:34.646Z,34.00
2018-02-02T18:35:02.302Z,44.03
2018-02-02T18:37:29.963Z,36.67
2018-02-02T18:39:57.568Z,61.13
2018-02-02T18:42:25.165Z,41.90
2018-02-02T18:44:52.845Z,65.07
2018-02-02T18:47:20.446Z,37.87
2018-02-02T18:49:48.110Z,40.10
2018-02-02T18:52:15.696Z,38.77
2018-02-02T18:54:43.453Z,34.43
2018-02-02T18:57:11.085Z,35.77
2018-02-02T18:59:38.751Z,34.77
2018-02-02T19:02:06.439Z,36.57
2018-02-02T19:04:34.040Z,36.03
2018-02-02T19:07:01.778Z,34.83
2018-02-02T19:09:29.465Z,36.87
2018-02-02T19:11:57.077Z,37.43
2018-02-02T19:14:24.678Z,36.33
2018-02-02T19:16:52.279Z,35.57
2018-02-02T19:19:20.007Z,33.43
2018-02-02T19:21:47.553Z,41.17
2018-02-02T19:24:15.184Z,40.13
2018-02-02T19:26:43.558Z,31.73
2018-02-02T19:29:11.315Z,31.07
2018-02-02T19:31:38.940Z,27.37
2018-02-02T19:34:06.659Z,24.00
2018-02-02T19:36:34.325Z,33.60
2018-02-02T19:39:02.042Z,30.70
2018-02-02T19:41:29.694Z,25.40
2018-02-02T19:43:57.291Z,29.00
2018-02-02T19:46:25.403Z,39.50
2018-02-02T19:48:53.055Z,28.37
2018-02-02T19:51:20.843Z,25.73
2018-02-02T19:53:49.525Z,29.23
2018-02-02T19:56:17.200Z,22.43
2018-02-02T19:58:45.838Z,27.57
2018-02-02T20:01:14.060Z,26.23
2018-02-02T20:03:41.915Z,28.00
2018-02-02T20:06:09.977Z,26.20
2018-02-02T20:08:38.008Z,21.00
2018-02-02T20:11:05.832Z,31.83
2018-02-02T20:13:34.787Z,20.27
2018-02-02T20:16:02.473Z,19.37
2018-02-02T20:18:30.125Z,17.23
2018-02-02T20:20:57.901Z,25.07
2018-02-02T20:23:25.508Z,19.57
2018-02-02T20:25:53.102Z,22.47
2018-02-02T20:28:20.689Z,25.17
2018-02-02T20:30:48.275Z,18.83
2018-02-02T20:33:16.026Z,20.97
2018-02-02T20:35:43.616Z,16.47
2018-02-02T20:38:11.151Z,23.13
2018-02-02T20:40:38.761Z,18.93
2018-02-02T20:43:06.291Z,25.13
2018-02-02T20:45:33.889Z,20.10
2018-02-02T20:48:01.563Z,20.33
2018-02-02T20:50:29.159Z,24.37
2018-02-02T20:52:56.757Z,22.63
2018-02-02T20:55:24.387Z,16.80
2018-02-02T20:57:51.984Z,20.47
2018-02-02T21:00:19.584Z,18.90
2018-02-02T21:02:47.225Z,25.63
2018-02-02T21:05:14.882Z,18.73
2018-02-02T21:07:42.479Z,20.00
2018-02-02T21:10:10.080Z,19.70
2018-02-02T21:12:37.732Z,23.43
2018-02-02T21:15:05.262Z,15.30
2018-02-02T21:17:32.856Z,19.10
2018-02-02T21:20:00.457Z,16.20
2018-02-02T21:22:28.111Z,15.70
2018-02-02T21:24:55.634Z,12.90
2018-02-02T21:27:23.336Z,19.53
2018-02-02T21:29:50.992Z,16.97
2018-02-02T21:32:18.535Z,17.23
2018-02-02T21:34:46.158Z,14.57
2018-02-02T21:37:13.991Z,17.83
2018-02-02T21:39:41.601Z,13.27
2018-02-02T21:42:09.126Z,15.33
2018-02-02T21:44:36.718Z,13.93
2018-02-02T21:47:04.356Z,12.00
2018-02-02T21:49:32.037Z,13.27
2018-02-02T21:51:59.619Z,11.23
2018-02-02T21:54:27.267Z,14.50
2018-02-02T21:56:54.811Z,13.70
2018-02-02T21:59:22.404Z,10.37
2018-02-02T22:01:50.187Z,15.17
2018-02-02T22:04:17.921Z,11.67
2018-02-02T22:06:45.527Z,12.70
2018-02-02T22:09:13.175Z,10.57
2018-02-02T22:11:40.699Z,10.70
2018-02-02T22:14:08.292Z,11.07
2018-02-02T22:16:35.875Z,14.13
2018-02-02T22:19:03.439Z,12.97
2018-02-02T22:21:30.975Z,11.27
2018-02-02T22:23:58.571Z,10.73
2018-02-02T22:26:26.157Z,10.37
2018-02-02T22:28:53.788Z,11.33
2018-02-02T22:31:21.399Z,14.27
2018-02-02T22:33:49.000Z,11.93
2018-02-02T22:36:16.776Z,12.87
2018-02-02T22:38:44.307Z,10.03
2018-02-02T22:41:11.827Z,9.17
2018-02-02T22:43:39.405Z,10.67
2018-02-02T22:46:07.013Z,10.50
2018-02-02T22:48:34.656Z,13.07
2018-02-02T22:51:02.175Z,8.17
2018-02-02T22:53:29.765Z,13.93
2018-02-02T22:55:57.279Z,9.70
2018-02-02T22:58:24.869Z,9.93
2018-02-02T23:00:52.387Z,8.60
2018-02-02T23:03:19.903Z,8.47
2018-02-02T23:05:47.548Z,12.10
2018-02-02T23:08:15.067Z,7.97
2018-02-02T23:10:42.658Z,8.53
2018-02-02T23:13:10.182Z,8.43
2018-02-02T23:15:37.817Z,9.03
2018-02-02T23:18:05.418Z,7.33
2018-02-02T23:20:33.199Z,7.33
2018-02-02T23:23:00.715Z,9.77
2018-02-02T23:25:28.364Z,12.50
2018-02-02T23:27:55.964Z,9.50
2018-02-02T23:30:23.496Z,8.27
2018-02-02T23:32:51.054Z,9.60
2018-02-02T23:35:18.696Z,8.63
2018-02-02T23:37:46.280Z,8.07
2018-02-02T23:40:13.921Z,12.50
2018-02-02T23:42:41.435Z,9.47
2018-02-02T23:45:09.037Z,8.80
2018-02-02T23:47:36.611Z,9.03
2018-02-02T23:50:04.153Z,8.50
2018-02-02T23:52:31.839Z,7.70
2018-02-02T23:54:59.437Z,7.97
2018-02-02T23:57:27.003Z,9.40
2018-02-02T23:59:54.640Z,7.97
